sensor_id;sensor_type;location;lat;lon;timestamp;pressure;altitude;pressure_sealevel;temperature;humidity
21988;BME280;11158;53.404;-1.510;2024-03-29T00:01:58;96767.34;;;6.68;100.00
21988;BME280;11158;53.404;-1.510;2024-03-29T00:04:26;96796.19;;;6.71;100.00
21988;BME280;11158;53.404;-1.510;2024-03-29T00:06:52;96789.25;;;6.70;100.00
21988;BME280;11158;53.404;-1.510;2024-03-29T00:09:17;96796.06;;;6.72;100.00
21988;BME280;11158;53.404;-1.510;2024-03-29T00:11:43;96808.19;;;6.75;100.00
21988;BME280;11158;53.404;-1.510;2024-03-29T00:14:09;96799.84;;;6.70;100.00
21988;BME280;11158;53.404;-1.510;2024-03-29T00:16:34;96803.56;;;6.67;98.44
21988;BME280;11158;53.404;-1.510;2024-03-29T00:19:00;96807.19;;;6.66;97.91
21988;BME280;11158;53.404;-1.510;2024-03-29T00:21:25;96827.88;;;6.61;96.95
21988;BME280;11158;53.404;-1.510;2024-03-29T00:23:51;96828.84;;;6.60;97.73
21988;BME280;11158;53.404;-1.510;2024-03-29T00:26:18;96846.00;;;6.65;96.25
21988;BME280;11158;53.404;-1.510;2024-03-29T00:28:44;96857.69;;;6.63;95.05
21988;BME280;11158;53.404;-1.510;2024-03-29T00:31:09;96858.09;;;6.58;95.96
21988;BME280;11158;53.404;-1.510;2024-03-29T00:33:35;96868.09;;;6.55;94.21
21988;BME280;11158;53.404;-1.510;2024-03-29T00:36:01;96866.50;;;6.52;93.68
21988;BME280;11158;53.404;-1.510;2024-03-29T00:38:26;96863.19;;;6.39;95.13
21988;BME280;11158;53.404;-1.510;2024-03-29T00:40:51;96869.22;;;6.30;94.59
21988;BME280;11158;53.404;-1.510;2024-03-29T00:43:17;96871.66;;;6.21;96.91
21988;BME280;11158;53.404;-1.510;2024-03-29T00:45:42;96873.34;;;6.11;94.67
21988;BME280;11158;53.404;-1.510;2024-03-29T00:48:08;96868.31;;;6.08;95.58
21988;BME280;11158;53.404;-1.510;2024-03-29T00:50:34;96873.00;;;6.04;92.90
21988;BME280;11158;53.404;-1.510;2024-03-29T00:52:59;96876.97;;;5.99;94.23
21988;BME280;11158;53.404;-1.510;2024-03-29T00:55:25;96896.75;;;5.93;94.37
21988;BME280;11158;53.404;-1.510;2024-03-29T00:57:51;96888.94;;;5.80;94.03
21988;BME280;11158;53.404;-1.510;2024-03-29T01:00:17;96902.91;;;5.82;91.85
21988;BME280;11158;53.404;-1.510;2024-03-29T01:02:42;96910.34;;;5.77;95.14
21988;BME280;11158;53.404;-1.510;2024-03-29T01:05:08;96911.56;;;5.73;93.93
21988;BME280;11158;53.404;-1.510;2024-03-29T01:07:34;96923.44;;;5.67;90.60
21988;BME280;11158;53.404;-1.510;2024-03-29T01:10:00;96925.59;;;5.74;91.89
21988;BME280;11158;53.404;-1.510;2024-03-29T01:12:25;96938.19;;;5.70;92.44
21988;BME280;11158;53.404;-1.510;2024-03-29T01:14:51;96949.34;;;5.62;91.72
21988;BME280;11158;53.404;-1.510;2024-03-29T01:17:17;96950.06;;;5.64;93.13
21988;BME280;11158;53.404;-1.510;2024-03-29T01:19:43;96964.13;;;5.65;91.20
21988;BME280;11158;53.404;-1.510;2024-03-29T01:22:08;96962.56;;;5.62;90.77
21988;BME280;11158;53.404;-1.510;2024-03-29T01:24:34;96968.94;;;5.60;92.08
21988;BME280;11158;53.404;-1.510;2024-03-29T01:26:59;96973.13;;;5.62;90.60
21988;BME280;11158;53.404;-1.510;2024-03-29T01:29:25;96973.84;;;5.64;90.93
21988;BME280;11158;53.404;-1.510;2024-03-29T01:31:50;96976.59;;;5.63;90.74
21988;BME280;11158;53.404;-1.510;2024-03-29T01:34:15;96977.81;;;5.59;91.92
21988;BME280;11158;53.404;-1.510;2024-03-29T01:36:41;96984.66;;;5.61;91.02
21988;BME280;11158;53.404;-1.510;2024-03-29T01:39:07;96981.06;;;5.62;92.56
21988;BME280;11158;53.404;-1.510;2024-03-29T01:41:33;96986.94;;;5.55;93.04
21988;BME280;11158;53.404;-1.510;2024-03-29T01:43:59;96981.97;;;5.50;93.35
21988;BME280;11158;53.404;-1.510;2024-03-29T01:46:24;97003.88;;;5.63;92.95
21988;BME280;11158;53.404;-1.510;2024-03-29T01:48:50;97001.34;;;5.62;92.95
21988;BME280;11158;53.404;-1.510;2024-03-29T01:51:17;97007.09;;;5.56;91.71
21988;BME280;11158;53.404;-1.510;2024-03-29T01:53:43;97018.66;;;5.66;91.52
21988;BME280;11158;53.404;-1.510;2024-03-29T01:56:10;97021.75;;;5.60;92.12
21988;BME280;11158;53.404;-1.510;2024-03-29T01:58:36;97025.84;;;5.64;92.23
21988;BME280;11158;53.404;-1.510;2024-03-29T02:01:02;97036.28;;;5.54;93.50
21988;BME280;11158;53.404;-1.510;2024-03-29T02:03:29;97037.94;;;5.55;94.21
21988;BME280;11158;53.404;-1.510;2024-03-29T02:05:55;97040.44;;;5.45;95.48
21988;BME280;11158;53.404;-1.510;2024-03-29T02:08:22;97049.19;;;5.46;95.44
21988;BME280;11158;53.404;-1.510;2024-03-29T02:10:48;97041.88;;;5.50;96.74
21988;BME280;11158;53.404;-1.510;2024-03-29T02:13:13;97038.78;;;5.44;97.32
21988;BME280;11158;53.404;-1.510;2024-03-29T02:15:39;97041.22;;;5.35;98.83
21988;BME280;11158;53.404;-1.510;2024-03-29T02:18:05;97037.75;;;5.34;100.00
21988;BME280;11158;53.404;-1.510;2024-03-29T02:20:31;97044.59;;;5.37;100.00
21988;BME280;11158;53.404;-1.510;2024-03-29T02:23:06;97046.06;;;5.41;100.00
21988;BME280;11158;53.404;-1.510;2024-03-29T02:25:33;97050.22;;;5.32;100.00
21988;BME280;11158;53.404;-1.510;2024-03-29T02:27:59;97047.22;;;5.37;100.00
21988;BME280;11158;53.404;-1.510;2024-03-29T02:30:25;97053.13;;;5.40;100.00
21988;BME280;11158;53.404;-1.510;2024-03-29T02:32:50;97054.47;;;5.46;100.00
21988;BME280;11158;53.404;-1.510;2024-03-29T02:35:15;97068.94;;;5.29;100.00
21988;BME280;11158;53.404;-1.510;2024-03-29T02:37:41;97066.34;;;5.40;100.00
21988;BME280;11158;53.404;-1.510;2024-03-29T02:40:06;97077.53;;;5.44;99.97
21988;BME280;11158;53.404;-1.510;2024-03-29T02:42:34;97083.09;;;5.28;100.00
21988;BME280;11158;53.404;-1.510;2024-03-29T02:45:01;97091.34;;;5.23;100.00
21988;BME280;11158;53.404;-1.510;2024-03-29T02:47:27;97089.63;;;5.35;100.00
21988;BME280;11158;53.404;-1.510;2024-03-29T02:49:52;97099.59;;;5.19;100.00
21988;BME280;11158;53.404;-1.510;2024-03-29T02:52:18;97101.78;;;5.25;100.00
21988;BME280;11158;53.404;-1.510;2024-03-29T02:54:43;97109.22;;;5.20;100.00
21988;BME280;11158;53.404;-1.510;2024-03-29T02:57:09;97115.34;;;5.20;100.00
21988;BME280;11158;53.404;-1.510;2024-03-29T03:02:09;97130.28;;;5.08;100.00
21988;BME280;11158;53.404;-1.510;2024-03-29T03:04:34;97128.78;;;5.04;100.00
21988;BME280;11158;53.404;-1.510;2024-03-29T03:07:00;97134.78;;;5.06;100.00
21988;BME280;11158;53.404;-1.510;2024-03-29T03:09:45;97140.41;;;5.02;100.00
21988;BME280;11158;53.404;-1.510;2024-03-29T03:12:30;97130.94;;;4.86;100.00
21988;BME280;11158;53.404;-1.510;2024-03-29T03:14:57;97135.06;;;4.78;100.00
21988;BME280;11158;53.404;-1.510;2024-03-29T03:17:22;97136.22;;;4.86;100.00
21988;BME280;11158;53.404;-1.510;2024-03-29T03:19:47;97140.41;;;5.02;100.00
21988;BME280;11158;53.404;-1.510;2024-03-29T03:22:12;97146.34;;;4.93;100.00
21988;BME280;11158;53.404;-1.510;2024-03-29T03:24:38;97143.69;;;4.93;100.00
21988;BME280;11158;53.404;-1.510;2024-03-29T03:27:03;97149.94;;;4.92;100.00
21988;BME280;11158;53.404;-1.510;2024-03-29T03:29:29;97156.59;;;4.97;100.00
21988;BME280;11158;53.404;-1.510;2024-03-29T03:31:54;97158.59;;;4.94;100.00
21988;BME280;11158;53.404;-1.510;2024-03-29T03:34:19;97161.72;;;4.99;100.00
21988;BME280;11158;53.404;-1.510;2024-03-29T03:36:45;97157.09;;;5.02;100.00
21988;BME280;11158;53.404;-1.510;2024-03-29T03:39:10;97157.31;;;4.99;100.00
21988;BME280;11158;53.404;-1.510;2024-03-29T03:41:35;97166.38;;;5.08;100.00
21988;BME280;11158;53.404;-1.510;2024-03-29T03:44:01;97171.22;;;5.14;100.00
21988;BME280;11158;53.404;-1.510;2024-03-29T03:46:26;97166.06;;;5.13;100.00
21988;BME280;11158;53.404;-1.510;2024-03-29T03:48:51;97175.00;;;5.10;100.00
21988;BME280;11158;53.404;-1.510;2024-03-29T03:51:17;97181.09;;;5.23;100.00
21988;BME280;11158;53.404;-1.510;2024-03-29T03:53:42;97171.00;;;5.17;100.00
21988;BME280;11158;53.404;-1.510;2024-03-29T03:56:07;97183.47;;;5.15;100.00
21988;BME280;11158;53.404;-1.510;2024-03-29T03:58:32;97194.00;;;5.15;100.00
21988;BME280;11158;53.404;-1.510;2024-03-29T04:01:03;97195.47;;;5.19;100.00
21988;BME280;11158;53.404;-1.510;2024-03-29T04:03:29;97190.19;;;5.19;100.00
21988;BME280;11158;53.404;-1.510;2024-03-29T04:05:55;97195.38;;;5.21;100.00
21988;BME280;11158;53.404;-1.510;2024-03-29T04:08:20;97196.44;;;5.18;100.00
21988;BME280;11158;53.404;-1.510;2024-03-29T04:10:45;97193.81;;;5.18;100.00
21988;BME280;11158;53.404;-1.510;2024-03-29T04:13:11;97204.78;;;5.12;100.00
21988;BME280;11158;53.404;-1.510;2024-03-29T04:15:36;97211.75;;;5.13;100.00
21988;BME280;11158;53.404;-1.510;2024-03-29T04:18:01;97211.97;;;5.10;100.00
21988;BME280;11158;53.404;-1.510;2024-03-29T04:20:26;97211.22;;;5.08;100.00
21988;BME280;11158;53.404;-1.510;2024-03-29T04:22:52;97216.56;;;4.95;100.00
21988;BME280;11158;53.404;-1.510;2024-03-29T04:25:17;97227.50;;;4.89;100.00
21988;BME280;11158;53.404;-1.510;2024-03-29T04:27:42;97225.09;;;4.86;100.00
21988;BME280;11158;53.404;-1.510;2024-03-29T04:30:08;97240.59;;;4.78;100.00
21988;BME280;11158;53.404;-1.510;2024-03-29T04:32:33;97241.56;;;4.77;100.00
21988;BME280;11158;53.404;-1.510;2024-03-29T04:34:59;97241.56;;;4.77;100.00
21988;BME280;11158;53.404;-1.510;2024-03-29T04:37:24;97242.59;;;4.74;100.00
21988;BME280;11158;53.404;-1.510;2024-03-29T04:39:49;97240.94;;;4.73;100.00
21988;BME280;11158;53.404;-1.510;2024-03-29T04:42:15;97239.13;;;4.74;100.00
21988;BME280;11158;53.404;-1.510;2024-03-29T04:44:40;97237.47;;;4.73;100.00
21988;BME280;11158;53.404;-1.510;2024-03-29T04:47:06;97251.78;;;4.68;100.00
21988;BME280;11158;53.404;-1.510;2024-03-29T04:49:31;97258.13;;;4.66;100.00
21988;BME280;11158;53.404;-1.510;2024-03-29T04:52:02;97256.44;;;4.65;100.00
21988;BME280;11158;53.404;-1.510;2024-03-29T04:54:29;97251.78;;;4.68;100.00
21988;BME280;11158;53.404;-1.510;2024-03-29T04:56:54;97258.75;;;4.69;100.00
21988;BME280;11158;53.404;-1.510;2024-03-29T04:59:20;97268.25;;;4.59;100.00
21988;BME280;11158;53.404;-1.510;2024-03-29T05:01:47;97274.28;;;4.61;100.00
21988;BME280;11158;53.404;-1.510;2024-03-29T05:04:16;97271.63;;;4.61;100.00
21988;BME280;11158;53.404;-1.510;2024-03-29T05:06:44;97280.28;;;4.63;100.00
21988;BME280;11158;53.404;-1.510;2024-03-29T05:09:10;97285.22;;;4.42;100.00
21988;BME280;11158;53.404;-1.510;2024-03-29T05:11:37;97279.38;;;4.37;100.00
21988;BME280;11158;53.404;-1.510;2024-03-29T05:14:02;97288.13;;;4.38;100.00
21988;BME280;11158;53.404;-1.510;2024-03-29T05:16:29;97293.63;;;4.47;100.00
21988;BME280;11158;53.404;-1.510;2024-03-29T05:18:54;97298.25;;;4.31;100.00
21988;BME280;11158;53.404;-1.510;2024-03-29T05:21:20;97305.50;;;4.27;100.00
21988;BME280;11158;53.404;-1.510;2024-03-29T05:23:45;97303.44;;;4.33;100.00
21988;BME280;11158;53.404;-1.510;2024-03-29T05:26:10;97307.75;;;4.34;100.00
21988;BME280;11158;53.404;-1.510;2024-03-29T05:28:36;97313.09;;;4.32;100.00
21988;BME280;11158;53.404;-1.510;2024-03-29T05:31:11;97312.81;;;4.37;100.00
21988;BME280;11158;53.404;-1.510;2024-03-29T05:33:37;97324.72;;;4.29;100.00
21988;BME280;11158;53.404;-1.510;2024-03-29T05:36:03;97329.66;;;4.34;100.00
21988;BME280;11158;53.404;-1.510;2024-03-29T05:38:30;97336.66;;;4.35;100.00
21988;BME280;11158;53.404;-1.510;2024-03-29T05:40:55;97329.44;;;4.24;100.00
21988;BME280;11158;53.404;-1.510;2024-03-29T05:43:20;97324.81;;;4.28;100.00
21988;BME280;11158;53.404;-1.510;2024-03-29T05:45:46;97324.16;;;4.24;100.00
21988;BME280;11158;53.404;-1.510;2024-03-29T05:48:11;97327.25;;;4.31;100.00
21988;BME280;11158;53.404;-1.510;2024-03-29T05:50:36;97342.09;;;4.32;100.00
21988;BME280;11158;53.404;-1.510;2024-03-29T05:53:01;97331.03;;;4.27;100.00
21988;BME280;11158;53.404;-1.510;2024-03-29T05:55:27;97331.88;;;4.27;100.00
21988;BME280;11158;53.404;-1.510;2024-03-29T05:57:52;97335.91;;;4.33;100.00
21988;BME280;11158;53.404;-1.510;2024-03-29T06:00:18;97345.28;;;4.37;100.00
21988;BME280;11158;53.404;-1.510;2024-03-29T06:02:43;97341.41;;;4.43;100.00
21988;BME280;11158;53.404;-1.510;2024-03-29T06:05:13;97325.09;;;4.50;100.00
21988;BME280;11158;53.404;-1.510;2024-03-29T06:07:39;97330.69;;;4.59;100.00
21988;BME280;11158;53.404;-1.510;2024-03-29T06:10:04;97333.53;;;4.56;100.00
21988;BME280;11158;53.404;-1.510;2024-03-29T06:12:31;97331.84;;;4.55;100.00
21988;BME280;11158;53.404;-1.510;2024-03-29T06:14:57;97329.66;;;4.61;100.00
21988;BME280;11158;53.404;-1.510;2024-03-29T06:17:41;97321.75;;;4.61;100.00
21988;BME280;11158;53.404;-1.510;2024-03-29T06:20:07;97316.97;;;4.66;100.00
21988;BME280;11158;53.404;-1.510;2024-03-29T06:22:32;97316.59;;;4.73;100.00
21988;BME280;11158;53.404;-1.510;2024-03-29T06:24:58;97313.97;;;4.73;100.00
21988;BME280;11158;53.404;-1.510;2024-03-29T06:27:24;97323.66;;;4.72;100.00
21988;BME280;11158;53.404;-1.510;2024-03-29T06:29:50;97319.63;;;4.66;100.00
21988;BME280;11158;53.404;-1.510;2024-03-29T06:32:15;97326.19;;;4.74;100.00
21988;BME280;11158;53.404;-1.510;2024-03-29T06:34:44;97328.22;;;4.96;100.00
21988;BME280;11158;53.404;-1.510;2024-03-29T06:37:11;97333.09;;;5.15;100.00
21988;BME280;11158;53.404;-1.510;2024-03-29T06:39:36;97329.91;;;5.22;100.00
21988;BME280;11158;53.404;-1.510;2024-03-29T06:42:02;97340.03;;;5.16;100.00
21988;BME280;11158;53.404;-1.510;2024-03-29T06:44:40;97354.63;;;5.08;100.00
21988;BME280;11158;53.404;-1.510;2024-03-29T06:47:07;97350.09;;;5.11;100.00
21988;BME280;11158;53.404;-1.510;2024-03-29T06:49:32;97356.53;;;5.19;100.00
21988;BME280;11158;53.404;-1.510;2024-03-29T06:51:58;97348.81;;;5.29;100.00
21988;BME280;11158;53.404;-1.510;2024-03-29T06:54:27;97348.28;;;5.50;100.00
21988;BME280;11158;53.404;-1.510;2024-03-29T06:56:55;97351.44;;;5.42;100.00
21988;BME280;11158;53.404;-1.510;2024-03-29T06:59:22;97357.47;;;5.57;100.00
21988;BME280;11158;53.404;-1.510;2024-03-29T07:01:48;97353.25;;;5.54;100.00
21988;BME280;11158;53.404;-1.510;2024-03-29T07:04:17;97345.09;;;5.57;100.00
21988;BME280;11158;53.404;-1.510;2024-03-29T07:06:42;97345.44;;;5.53;100.00
21988;BME280;11158;53.404;-1.510;2024-03-29T07:09:12;97349.34;;;5.47;100.00
21988;BME280;11158;53.404;-1.510;2024-03-29T07:11:37;97344.91;;;5.47;100.00
21988;BME280;11158;53.404;-1.510;2024-03-29T07:14:02;97354.00;;;5.56;100.00
21988;BME280;11158;53.404;-1.510;2024-03-29T07:16:29;97351.75;;;5.63;100.00
21988;BME280;11158;53.404;-1.510;2024-03-29T07:18:54;97352.81;;;5.73;100.00
21988;BME280;11158;53.404;-1.510;2024-03-29T07:21:20;97346.97;;;5.81;100.00
21988;BME280;11158;53.404;-1.510;2024-03-29T07:23:45;97350.34;;;5.96;100.00
21988;BME280;11158;53.404;-1.510;2024-03-29T07:26:11;97350.88;;;5.88;100.00
21988;BME280;11158;53.404;-1.510;2024-03-29T07:28:37;97348.63;;;5.95;100.00
21988;BME280;11158;53.404;-1.510;2024-03-29T07:31:06;97357.38;;;6.08;100.00
21988;BME280;11158;53.404;-1.510;2024-03-29T07:33:36;97356.88;;;6.03;100.00
21988;BME280;11158;53.404;-1.510;2024-03-29T07:36:01;97355.28;;;6.13;100.00
21988;BME280;11158;53.404;-1.510;2024-03-29T07:38:29;97360.44;;;6.15;100.00
21988;BME280;11158;53.404;-1.510;2024-03-29T07:40:55;97360.25;;;6.05;100.00
21988;BME280;11158;53.404;-1.510;2024-03-29T07:43:21;97360.94;;;6.20;100.00
21988;BME280;11158;53.404;-1.510;2024-03-29T07:45:47;97358.34;;;6.07;100.00
21988;BME280;11158;53.404;-1.510;2024-03-29T07:48:15;97359.41;;;6.04;100.00
21988;BME280;11158;53.404;-1.510;2024-03-29T07:50:44;97360.66;;;6.12;100.00
21988;BME280;11158;53.404;-1.510;2024-03-29T07:53:10;97347.00;;;6.18;100.00
21988;BME280;11158;53.404;-1.510;2024-03-29T07:55:37;97357.75;;;6.28;100.00
21988;BME280;11158;53.404;-1.510;2024-03-29T07:58:03;97358.72;;;6.51;100.00
21988;BME280;11158;53.404;-1.510;2024-03-29T08:00:33;97363.03;;;6.52;100.00
21988;BME280;11158;53.404;-1.510;2024-03-29T08:02:59;97364.38;;;6.57;100.00
21988;BME280;11158;53.404;-1.510;2024-03-29T08:05:24;97371.09;;;6.50;100.00
21988;BME280;11158;53.404;-1.510;2024-03-29T08:07:50;97373.97;;;6.82;100.00
21988;BME280;11158;53.404;-1.510;2024-03-29T08:10:15;97375.69;;;6.59;100.00
21988;BME280;11158;53.404;-1.510;2024-03-29T08:12:41;97385.16;;;6.75;100.00
21988;BME280;11158;53.404;-1.510;2024-03-29T08:15:06;97383.19;;;6.65;100.00
21988;BME280;11158;53.404;-1.510;2024-03-29T08:17:33;97380.78;;;6.62;100.00
21988;BME280;11158;53.404;-1.510;2024-03-29T08:19:58;97381.97;;;6.58;100.00
21988;BME280;11158;53.404;-1.510;2024-03-29T08:22:24;97381.19;;;6.80;100.00
21988;BME280;11158;53.404;-1.510;2024-03-29T08:24:49;97383.91;;;6.68;100.00
21988;BME280;11158;53.404;-1.510;2024-03-29T08:27:15;97388.31;;;6.56;100.00
21988;BME280;11158;53.404;-1.510;2024-03-29T08:29:43;97387.31;;;6.70;100.00
21988;BME280;11158;53.404;-1.510;2024-03-29T08:32:09;97397.19;;;6.79;100.00
21988;BME280;11158;53.404;-1.510;2024-03-29T08:34:38;97386.16;;;6.85;100.00
21988;BME280;11158;53.404;-1.510;2024-03-29T08:37:04;97389.25;;;6.79;100.00
21988;BME280;11158;53.404;-1.510;2024-03-29T08:39:32;97380.56;;;6.77;100.00
21988;BME280;11158;53.404;-1.510;2024-03-29T08:41:58;97380.50;;;6.90;100.00
21988;BME280;11158;53.404;-1.510;2024-03-29T08:44:24;97387.16;;;6.95;100.00
21988;BME280;11158;53.404;-1.510;2024-03-29T08:46:50;97388.91;;;7.08;100.00
21988;BME280;11158;53.404;-1.510;2024-03-29T08:49:16;97397.84;;;6.94;100.00
21988;BME280;11158;53.404;-1.510;2024-03-29T08:51:41;97397.75;;;6.95;100.00
21988;BME280;11158;53.404;-1.510;2024-03-29T08:54:07;97400.16;;;6.98;100.00
21988;BME280;11158;53.404;-1.510;2024-03-29T08:56:32;97397.31;;;7.13;100.00
21988;BME280;11158;53.404;-1.510;2024-03-29T08:58:59;97392.94;;;7.47;100.00
21988;BME280;11158;53.404;-1.510;2024-03-29T09:01:28;97393.41;;;7.52;100.00
21988;BME280;11158;53.404;-1.510;2024-03-29T09:03:53;97388.00;;;7.54;100.00
21988;BME280;11158;53.404;-1.510;2024-03-29T09:06:19;97388.75;;;7.78;100.00
21988;BME280;11158;53.404;-1.510;2024-03-29T09:08:44;97387.75;;;7.79;100.00
21988;BME280;11158;53.404;-1.510;2024-03-29T09:11:10;97392.47;;;7.65;100.00
21988;BME280;11158;53.404;-1.510;2024-03-29T09:13:36;97390.31;;;7.81;100.00
21988;BME280;11158;53.404;-1.510;2024-03-29T09:16:02;97389.56;;;7.68;100.00
21988;BME280;11158;53.404;-1.510;2024-03-29T09:18:27;97394.28;;;7.87;100.00
21988;BME280;11158;53.404;-1.510;2024-03-29T09:20:57;97387.53;;;7.94;100.00
21988;BME280;11158;53.404;-1.510;2024-03-29T09:23:23;97393.94;;;8.02;100.00
21988;BME280;11158;53.404;-1.510;2024-03-29T09:25:50;97388.97;;;7.98;100.00
21988;BME280;11158;53.404;-1.510;2024-03-29T09:28:16;97387.41;;;8.18;100.00
21988;BME280;11158;53.404;-1.510;2024-03-29T09:30:41;97391.38;;;8.24;100.00
21988;BME280;11158;53.404;-1.510;2024-03-29T09:33:07;97387.22;;;8.31;100.00
21988;BME280;11158;53.404;-1.510;2024-03-29T09:35:35;97396.78;;;8.22;100.00
21988;BME280;11158;53.404;-1.510;2024-03-29T09:38:01;97387.13;;;8.44;100.00
21988;BME280;11158;53.404;-1.510;2024-03-29T09:40:28;97395.41;;;8.62;100.00
21988;BME280;11158;53.404;-1.510;2024-03-29T09:42:59;97397.16;;;8.72;100.00
21988;BME280;11158;53.404;-1.510;2024-03-29T09:45:37;97395.25;;;8.63;100.00
21988;BME280;11158;53.404;-1.510;2024-03-29T09:48:07;97395.00;;;8.77;100.00
21988;BME280;11158;53.404;-1.510;2024-03-29T09:50:35;97398.16;;;8.71;100.00
21988;BME280;11158;53.404;-1.510;2024-03-29T09:53:01;97398.94;;;8.83;100.00
21988;BME280;11158;53.404;-1.510;2024-03-29T09:55:28;97399.41;;;8.56;100.00
21988;BME280;11158;53.404;-1.510;2024-03-29T09:57:53;97399.75;;;8.63;100.00
21988;BME280;11158;53.404;-1.510;2024-03-29T10:00:19;97404.84;;;8.54;100.00
21988;BME280;11158;53.404;-1.510;2024-03-29T10:02:46;97405.31;;;8.59;100.00
21988;BME280;11158;53.404;-1.510;2024-03-29T10:05:14;97404.63;;;8.46;100.00
21988;BME280;11158;53.404;-1.510;2024-03-29T10:07:42;97404.84;;;8.54;100.00
21988;BME280;11158;53.404;-1.510;2024-03-29T10:10:17;97415.41;;;8.77;100.00
21988;BME280;11158;53.404;-1.510;2024-03-29T10:12:45;97406.53;;;8.88;100.00
21988;BME280;11158;53.404;-1.510;2024-03-29T10:15:13;97414.13;;;8.92;96.86
21988;BME280;11158;53.404;-1.510;2024-03-29T10:17:47;97409.78;;;8.91;97.58
21988;BME280;11158;53.404;-1.510;2024-03-29T10:20:17;97419.72;;;8.78;97.20
21988;BME280;11158;53.404;-1.510;2024-03-29T10:22:44;97423.06;;;8.91;99.59
21988;BME280;11158;53.404;-1.510;2024-03-29T10:25:13;97428.50;;;8.90;98.88
21988;BME280;11158;53.404;-1.510;2024-03-29T10:27:40;97424.50;;;8.95;99.00
21988;BME280;11158;53.404;-1.510;2024-03-29T10:30:09;97419.91;;;8.97;99.24
21988;BME280;11158;53.404;-1.510;2024-03-29T10:32:39;97430.13;;;9.34;97.86
21988;BME280;11158;53.404;-1.510;2024-03-29T10:35:05;97429.72;;;9.60;95.29
21988;BME280;11158;53.404;-1.510;2024-03-29T10:37:31;97417.94;;;9.53;94.12
21988;BME280;11158;53.404;-1.510;2024-03-29T10:40:00;97413.63;;;9.62;94.37
21988;BME280;11158;53.404;-1.510;2024-03-29T10:42:26;97419.94;;;9.40;94.98
21988;BME280;11158;53.404;-1.510;2024-03-29T10:44:52;97421.59;;;9.62;96.07
21988;BME280;11158;53.404;-1.510;2024-03-29T10:47:19;97415.34;;;9.42;94.74
21988;BME280;11158;53.404;-1.510;2024-03-29T10:49:50;97415.84;;;9.14;94.12
21988;BME280;11158;53.404;-1.510;2024-03-29T10:52:18;97418.00;;;9.21;92.68
21988;BME280;11158;53.404;-1.510;2024-03-29T10:54:45;97431.47;;;9.29;94.92
21988;BME280;11158;53.404;-1.510;2024-03-29T10:57:25;97418.06;;;9.51;94.42
21988;BME280;11158;53.404;-1.510;2024-03-29T11:00:11;97414.16;;;9.55;93.88
21988;BME280;11158;53.404;-1.510;2024-03-29T11:02:55;97409.47;;;9.69;92.99
21988;BME280;11158;53.404;-1.510;2024-03-29T11:05:23;97411.13;;;9.91;91.50
21988;BME280;11158;53.404;-1.510;2024-03-29T11:07:52;97411.34;;;9.78;90.60
21988;BME280;11158;53.404;-1.510;2024-03-29T11:10:35;97406.69;;;10.01;89.59
21988;BME280;11158;53.404;-1.510;2024-03-29T11:15:51;97412.72;;;10.34;84.60
21988;BME280;11158;53.404;-1.510;2024-03-29T11:18:19;97425.47;;;10.30;86.01
21988;BME280;11158;53.404;-1.510;2024-03-29T11:20:46;97426.88;;;10.34;83.96
21988;BME280;11158;53.404;-1.510;2024-03-29T11:23:17;97424.13;;;10.55;82.99
21988;BME280;11158;53.404;-1.510;2024-03-29T11:25:54;97422.47;;;10.24;83.54
21988;BME280;11158;53.404;-1.510;2024-03-29T11:28:31;97423.03;;;10.27;82.65
21988;BME280;11158;53.404;-1.510;2024-03-29T11:31:07;97411.75;;;10.35;77.27
21988;BME280;11158;53.404;-1.510;2024-03-29T11:36:17;97421.97;;;10.09;77.86
21988;BME280;11158;53.404;-1.510;2024-03-29T11:38:44;97424.66;;;10.19;75.90
21988;BME280;11158;53.404;-1.510;2024-03-29T11:41:12;97423.91;;;9.97;75.53
21988;BME280;11158;53.404;-1.510;2024-03-29T11:43:38;97419.72;;;10.04;76.71
21988;BME280;11158;53.404;-1.510;2024-03-29T11:46:09;97420.59;;;10.14;76.84
21988;BME280;11158;53.404;-1.510;2024-03-29T11:48:35;97417.63;;;10.39;74.67
21988;BME280;11158;53.404;-1.510;2024-03-29T11:51:03;97417.09;;;10.45;75.33
21988;BME280;11158;53.404;-1.510;2024-03-29T11:53:29;97423.28;;;10.55;73.01
21988;BME280;11158;53.404;-1.510;2024-03-29T11:56:00;97422.41;;;10.45;71.87
21988;BME280;11158;53.404;-1.510;2024-03-29T11:58:27;97429.47;;;10.55;71.64
21988;BME280;11158;53.404;-1.510;2024-03-29T12:00:54;97427.28;;;10.09;68.75
21988;BME280;11158;53.404;-1.510;2024-03-29T12:03:21;97431.34;;;10.03;75.25
21988;BME280;11158;53.404;-1.510;2024-03-29T12:05:53;97436.59;;;10.24;76.28
21988;BME280;11158;53.404;-1.510;2024-03-29T12:08:22;97438.34;;;10.35;74.02
21988;BME280;11158;53.404;-1.510;2024-03-29T12:10:48;97440.06;;;10.36;70.91
21988;BME280;11158;53.404;-1.510;2024-03-29T12:13:16;97445.13;;;10.49;71.52
21988;BME280;11158;53.404;-1.510;2024-03-29T12:15:42;97453.44;;;10.65;72.74
21988;BME280;11158;53.404;-1.510;2024-03-29T12:18:08;97456.56;;;10.90;69.74
21988;BME280;11158;53.404;-1.510;2024-03-29T12:20:34;97461.22;;;11.17;69.16
21988;BME280;11158;53.404;-1.510;2024-03-29T12:23:01;97457.28;;;11.02;68.53
21988;BME280;11158;53.404;-1.510;2024-03-29T12:25:28;97468.22;;;10.99;69.67
21988;BME280;11158;53.404;-1.510;2024-03-29T12:28:14;97469.06;;;10.89;70.36
21988;BME280;11158;53.404;-1.510;2024-03-29T12:30:46;97476.75;;;10.92;71.35
21988;BME280;11158;53.404;-1.510;2024-03-29T12:35:42;97500.59;;;9.92;82.17
21988;BME280;11158;53.404;-1.510;2024-03-29T12:38:17;97502.72;;;9.35;93.77
21988;BME280;11158;53.404;-1.510;2024-03-29T12:40:48;97498.50;;;9.32;97.76
21988;BME280;11158;53.404;-1.510;2024-03-29T12:43:15;97503.44;;;8.93;96.43
21988;BME280;11158;53.404;-1.510;2024-03-29T12:45:46;97488.03;;;8.87;97.78
21988;BME280;11158;53.404;-1.510;2024-03-29T12:48:16;97496.69;;;8.89;100.00
21988;BME280;11158;53.404;-1.510;2024-03-29T12:50:44;97502.09;;;8.99;100.00
21988;BME280;11158;53.404;-1.510;2024-03-29T12:53:12;97500.41;;;9.09;100.00
21988;BME280;11158;53.404;-1.510;2024-03-29T12:55:44;97492.75;;;9.16;100.00
21988;BME280;11158;53.404;-1.510;2024-03-29T12:58:12;97492.50;;;9.19;97.74
21988;BME280;11158;53.404;-1.510;2024-03-29T13:00:39;97491.34;;;9.33;97.29
21988;BME280;11158;53.404;-1.510;2024-03-29T13:03:05;97491.91;;;9.48;99.05